sensor_id;sensor_type;location;lat;lon;timestamp;pressure;altitude;pressure_sealevel;temperature;humidity
44457;BME280;30159;49.316;8.558;2022-12-04T00:00:25;100280.03;;;3.06;100.00
44457;BME280;30159;49.316;8.558;2022-12-04T00:02:52;100276.66;;;3.10;100.00
44457;BME280;30159;49.316;8.558;2022-12-04T00:05:19;100276.66;;;3.10;100.00
44457;BME280;30159;49.316;8.558;2022-12-04T00:07:45;100280.44;;;3.14;100.00
44457;BME280;30159;49.316;8.558;2022-12-04T00:10:12;100286.84;;;3.13;100.00
44457;BME280;30159;49.316;8.558;2022-12-04T00:12:38;100283.25;;;3.08;100.00
44457;BME280;30159;49.316;8.558;2022-12-04T00:15:06;100274.69;;;3.17;100.00
44457;BME280;30159;49.316;8.558;2022-12-04T00:17:34;100283.00;;;3.09;100.00
44457;BME280;30159;49.316;8.558;2022-12-04T00:20:01;100282.44;;;2.95;100.00
44457;BME280;30159;49.316;8.558;2022-12-04T00:22:28;100282.44;;;2.95;100.00
44457;BME280;30159;49.316;8.558;2022-12-04T00:24:54;100279.31;;;3.10;100.00
44457;BME280;30159;49.316;8.558;2022-12-04T00:27:21;100267.38;;;3.01;100.00
44457;BME280;30159;49.316;8.558;2022-12-04T00:29:47;100263.66;;;3.02;100.00
44457;BME280;30159;49.316;8.558;2022-12-04T00:32:14;100262.97;;;2.95;100.00
44457;BME280;30159;49.316;8.558;2022-12-04T00:34:42;100251.03;;;2.98;100.00
44457;BME280;30159;49.316;8.558;2022-12-04T00:37:08;100247.38;;;2.87;100.00
44457;BME280;30159;49.316;8.558;2022-12-04T00:39:35;100260.44;;;2.88;100.00
44457;BME280;30159;49.316;8.558;2022-12-04T00:42:02;100266.56;;;2.89;100.00
44457;BME280;30159;49.316;8.558;2022-12-04T00:44:29;100262.19;;;2.83;100.00
44457;BME280;30159;49.316;8.558;2022-12-04T00:46:55;100253.25;;;3.01;100.00
44457;BME280;30159;49.316;8.558;2022-12-04T00:49:22;100247.47;;;3.04;100.00
44457;BME280;30159;49.316;8.558;2022-12-04T00:51:50;100243.84;;;3.10;100.00
44457;BME280;30159;49.316;8.558;2022-12-04T00:54:16;100244.31;;;3.07;100.00
44457;BME280;30159;49.316;8.558;2022-12-04T00:56:43;100251.03;;;3.09;100.00
44457;BME280;30159;49.316;8.558;2022-12-04T00:59:09;100249.78;;;3.00;100.00
44457;BME280;30159;49.316;8.558;2022-12-04T01:01:38;100250.00;;;3.10;100.00
44457;BME280;30159;49.316;8.558;2022-12-04T01:04:04;100227.31;;;2.84;100.00
44457;BME280;30159;49.316;8.558;2022-12-04T01:06:33;100242.84;;;2.99;100.00
44457;BME280;30159;49.316;8.558;2022-12-04T01:09:03;100221.44;;;2.82;100.00
44457;BME280;30159;49.316;8.558;2022-12-04T01:11:30;100247.59;;;2.85;100.00
44457;BME280;30159;49.316;8.558;2022-12-04T01:13:58;100060.53;;;1.60;100.00
44457;BME280;30159;49.316;8.558;2022-12-04T01:16:27;100244.56;;;2.82;100.00
44457;BME280;30159;49.316;8.558;2022-12-04T01:18:54;100251.84;;;2.86;100.00
44457;BME280;30159;49.316;8.558;2022-12-04T01:21:21;100247.59;;;2.97;100.00
44457;BME280;30159;49.316;8.558;2022-12-04T01:23:48;100260.22;;;2.90;100.00
44457;BME280;30159;49.316;8.558;2022-12-04T01:26:16;100269.69;;;2.86;100.00
44457;BME280;30159;49.316;8.558;2022-12-04T01:28:43;100277.91;;;2.84;100.00
44457;BME280;30159;49.316;8.558;2022-12-04T01:31:11;100275.38;;;2.89;100.00
44457;BME280;30159;49.316;8.558;2022-12-04T01:33:39;100260.78;;;2.92;100.00
44457;BME280;30159;49.316;8.558;2022-12-04T01:36:08;100260.66;;;3.10;100.00
44457;BME280;30159;49.316;8.558;2022-12-04T01:38:36;100130.66;;;2.13;100.00
44457;BME280;30159;49.316;8.558;2022-12-04T01:41:03;100255.34;;;3.10;100.00
44457;BME280;30159;49.316;8.558;2022-12-04T01:43:32;100247.44;;;3.15;100.00
44457;BME280;30159;49.316;8.558;2022-12-04T01:46:00;100246.88;;;3.02;100.00
44457;BME280;30159;49.316;8.558;2022-12-04T01:48:28;100246.66;;;3.03;100.00
44457;BME280;30159;49.316;8.558;2022-12-04T01:51:01;100251.03;;;3.09;100.00
44457;BME280;30159;49.316;8.558;2022-12-04T01:53:30;100243.53;;;3.06;100.00
44457;BME280;30159;49.316;8.558;2022-12-04T01:55:57;100248.84;;;3.06;100.00
44457;BME280;30159;49.316;8.558;2022-12-04T01:58:27;100246.75;;;3.08;100.00
44457;BME280;30159;49.316;8.558;2022-12-04T02:01:01;100259.97;;;3.15;100.00
44457;BME280;30159;49.316;8.558;2022-12-04T02:03:29;100263.91;;;3.24;100.00
44457;BME280;30159;49.316;8.558;2022-12-04T02:05:56;100250.34;;;3.14;100.00
44457;BME280;30159;49.316;8.558;2022-12-04T02:08:24;100254.06;;;3.13;100.00
44457;BME280;30159;49.316;8.558;2022-12-04T02:11:01;100260.78;;;3.04;100.00
44457;BME280;30159;49.316;8.558;2022-12-04T02:13:34;100231.50;;;2.92;100.00
44457;BME280;30159;49.316;8.558;2022-12-04T02:16:08;100260.31;;;3.07;100.00
44457;BME280;30159;49.316;8.558;2022-12-04T02:18:45;100265.88;;;3.17;100.00
44457;BME280;30159;49.316;8.558;2022-12-04T02:21:19;100258.09;;;3.15;100.00
44457;BME280;30159;49.316;8.558;2022-12-04T02:23:58;100254.88;;;3.13;100.00
44457;BME280;30159;49.316;8.558;2022-12-04T02:26:40;100247.56;;;3.21;100.00
44457;BME280;30159;49.316;8.558;2022-12-04T02:29:16;100242.00;;;3.10;100.00
44457;BME280;30159;49.316;8.558;2022-12-04T02:31:50;100242.34;;;3.14;100.00
44457;BME280;30159;49.316;8.558;2022-12-04T02:34:24;100239.94;;;3.12;100.00
44457;BME280;30159;49.316;8.558;2022-12-04T02:36:55;100246.50;;;3.10;100.00
44457;BME280;30159;49.316;8.558;2022-12-04T02:39:25;100257.41;;;3.20;100.00
44457;BME280;30159;49.316;8.558;2022-12-04T02:41:58;100246.38;;;3.28;100.00
44457;BME280;30159;49.316;8.558;2022-12-04T02:44:29;100228.56;;;3.17;100.00
44457;BME280;30159;49.316;8.558;2022-12-04T02:47:01;100235.84;;;3.22;100.00
44457;BME280;30159;49.316;8.558;2022-12-04T02:49:32;100236.66;;;3.34;100.00
44457;BME280;30159;49.316;8.558;2022-12-04T02:52:02;100226.09;;;3.27;100.00
44457;BME280;30159;49.316;8.558;2022-12-04T02:54:35;100214.66;;;3.27;100.00
44457;BME280;30159;49.316;8.558;2022-12-04T02:57:06;100226.69;;;3.29;100.00
44457;BME280;30159;49.316;8.558;2022-12-04T02:59:38;100223.41;;;3.39;100.00
44457;BME280;30159;49.316;8.558;2022-12-04T03:02:09;100205.47;;;3.34;100.00
44457;BME280;30159;49.316;8.558;2022-12-04T03:04:38;100220.56;;;3.29;100.00
44457;BME280;30159;49.316;8.558;2022-12-04T03:07:10;100219.25;;;3.43;100.00
44457;BME280;30159;49.316;8.558;2022-12-04T03:09:42;100219.81;;;3.45;100.00
44457;BME280;30159;49.316;8.558;2022-12-04T03:12:20;100214.34;;;3.40;100.00
44457;BME280;30159;49.316;8.558;2022-12-04T03:14:53;100212.94;;;3.49;100.00
44457;BME280;30159;49.316;8.558;2022-12-04T03:17:23;100211.69;;;3.40;100.00
44457;BME280;30159;49.316;8.558;2022-12-04T03:19:55;100208.91;;;3.47;100.00
44457;BME280;30159;49.316;8.558;2022-12-04T03:22:24;100215.38;;;3.51;100.00
44457;BME280;30159;49.316;8.558;2022-12-04T03:24:53;100213.38;;;3.58;100.00
44457;BME280;30159;49.316;8.558;2022-12-04T03:27:25;100214.84;;;3.66;100.00
44457;BME280;30159;49.316;8.558;2022-12-04T03:30:01;100208.22;;;3.68;100.00
44457;BME280;30159;49.316;8.558;2022-12-04T03:32:32;100215.03;;;3.59;100.00
44457;BME280;30159;49.316;8.558;2022-12-04T03:35:04;100215.69;;;3.66;100.00
44457;BME280;30159;49.316;8.558;2022-12-04T03:37:36;100059.00;;;2.70;100.00
44457;BME280;30159;49.316;8.558;2022-12-04T03:40:11;100202.19;;;3.73;100.00
44457;BME280;30159;49.316;8.558;2022-12-04T03:42:44;100200.53;;;3.55;100.00
44457;BME280;30159;49.316;8.558;2022-12-04T03:45:19;100203.53;;;3.58;100.00
44457;BME280;30159;49.316;8.558;2022-12-04T03:47:52;100176.28;;;3.56;100.00
44457;BME280;30159;49.316;8.558;2022-12-04T03:50:27;100207.72;;;3.83;100.00
44457;BME280;30159;49.316;8.558;2022-12-04T03:53:00;100207.44;;;3.96;100.00
44457;BME280;30159;49.316;8.558;2022-12-04T03:55:33;100202.84;;;4.09;100.00
44457;BME280;30159;49.316;8.558;2022-12-04T03:58:03;100179.75;;;4.03;100.00
44457;BME280;30159;49.316;8.558;2022-12-04T04:00:36;100190.53;;;4.08;100.00
44457;BME280;30159;49.316;8.558;2022-12-04T04:03:08;100186.31;;;4.12;100.00
44457;BME280;30159;49.316;8.558;2022-12-04T04:05:41;100190.34;;;3.97;100.00
44457;BME280;30159;49.316;8.558;2022-12-04T04:08:13;100180.75;;;3.96;100.00
44457;BME280;30159;49.316;8.558;2022-12-04T04:11:02;100191.44;;;3.68;100.00
44457;BME280;30159;49.316;8.558;2022-12-04T04:13:35;100178.00;;;3.63;100.00
44457;BME280;30159;49.316;8.558;2022-12-04T04:16:26;100184.50;;;3.67;100.00
44457;BME280;30159;49.316;8.558;2022-12-04T04:19:12;100173.53;;;3.80;100.00
44457;BME280;30159;49.316;8.558;2022-12-04T04:21:58;100178.59;;;3.82;100.00
44457;BME280;30159;49.316;8.558;2022-12-04T04:24:50;100177.88;;;3.86;100.00
44457;BME280;30159;49.316;8.558;2022-12-04T04:27:18;100174.34;;;3.97;100.00
44457;BME280;30159;49.316;8.558;2022-12-04T04:29:45;100175.22;;;4.03;100.00
44457;BME280;30159;49.316;8.558;2022-12-04T04:32:17;100174.00;;;3.94;100.00
44457;BME280;30159;49.316;8.558;2022-12-04T04:34:52;100174.84;;;3.94;100.00
44457;BME280;30159;49.316;8.558;2022-12-04T04:37:26;100164.66;;;3.63;100.00
44457;BME280;30159;49.316;8.558;2022-12-04T04:39:58;100178.00;;;3.63;100.00
44457;BME280;30159;49.316;8.558;2022-12-04T04:42:29;100176.06;;;3.58;100.00
44457;BME280;30159;49.316;8.558;2022-12-04T04:45:01;100193.53;;;3.66;100.00
44457;BME280;30159;49.316;8.558;2022-12-04T04:47:33;100192.84;;;3.87;100.00
44457;BME280;30159;49.316;8.558;2022-12-04T04:50:04;100191.06;;;3.93;100.00
44457;BME280;30159;49.316;8.558;2022-12-04T04:52:33;100199.16;;;3.98;100.00
44457;BME280;30159;49.316;8.558;2022-12-04T04:55:02;100197.63;;;4.02;100.00
44457;BME280;30159;49.316;8.558;2022-12-04T04:57:31;100197.28;;;3.82;100.00
44457;BME280;30159;49.316;8.558;2022-12-04T04:59:58;100198.00;;;3.77;100.00
44457;BME280;30159;49.316;8.558;2022-12-04T05:02:25;100202.16;;;3.85;100.00
44457;BME280;30159;49.316;8.558;2022-12-04T05:04:54;100204.25;;;3.83;100.00
44457;BME280;30159;49.316;8.558;2022-12-04T05:07:20;100205.03;;;3.66;100.00
44457;BME280;30159;49.316;8.558;2022-12-04T05:09:47;100205.53;;;3.80;100.00
44457;BME280;30159;49.316;8.558;2022-12-04T05:12:14;100212.47;;;3.81;100.00
44457;BME280;30159;49.316;8.558;2022-12-04T05:14:40;100207.72;;;3.83;100.00
44457;BME280;30159;49.316;8.558;2022-12-04T05:17:07;100210.69;;;3.87;100.00
44457;BME280;30159;49.316;8.558;2022-12-04T05:19:33;100186.53;;;3.76;100.00
44457;BME280;30159;49.316;8.558;2022-12-04T05:22:22;100204.47;;;3.81;100.00
44457;BME280;30159;49.316;8.558;2022-12-04T05:24:49;100200.38;;;3.90;100.00
44457;BME280;30159;49.316;8.558;2022-12-04T05:27:15;100194.81;;;3.92;100.00
44457;BME280;30159;49.316;8.558;2022-12-04T05:29:42;100181.03;;;3.83;100.00
44457;BME280;30159;49.316;8.558;2022-12-04T05:32:09;100195.41;;;3.82;100.00
44457;BME280;30159;49.316;8.558;2022-12-04T05:34:36;100197.84;;;3.84;100.00
44457;BME280;30159;49.316;8.558;2022-12-04T05:37:04;100198.38;;;3.97;100.00
44457;BME280;30159;49.316;8.558;2022-12-04T05:39:33;100198.28;;;3.92;100.00
44457;BME280;30159;49.316;8.558;2022-12-04T05:41:59;100199.56;;;3.90;100.00
44457;BME280;30159;49.316;8.558;2022-12-04T05:44:26;100200.47;;;3.95;100.00
44457;BME280;30159;49.316;8.558;2022-12-04T05:46:52;100212.41;;;3.76;100.00
44457;BME280;30159;49.316;8.558;2022-12-04T05:49:19;100215.16;;;3.81;100.00
44457;BME280;30159;49.316;8.558;2022-12-04T05:51:45;100202.44;;;3.71;100.00
44457;BME280;30159;49.316;8.558;2022-12-04T05:54:12;100209.25;;;3.79;100.00
44457;BME280;30159;49.316;8.558;2022-12-04T05:56:40;100204.00;;;3.84;100.00
44457;BME280;30159;49.316;8.558;2022-12-04T05:59:06;100206.19;;;3.87;100.00
44457;BME280;30159;49.316;8.558;2022-12-04T06:01:33;100213.16;;;3.88;100.00
44457;BME280;30159;49.316;8.558;2022-12-04T06:03:59;100205.78;;;3.95;100.00
44457;BME280;30159;49.316;8.558;2022-12-04T06:06:26;100126.34;;;3.23;100.00
44457;BME280;30159;49.316;8.558;2022-12-04T06:08:56;100032.84;;;2.67;100.00
44457;BME280;30159;49.316;8.558;2022-12-04T06:11:25;100199.38;;;3.79;100.00
44457;BME280;30159;49.316;8.558;2022-12-04T06:13:53;100196.34;;;3.88;100.00
44457;BME280;30159;49.316;8.558;2022-12-04T06:16:22;100196.38;;;3.76;100.00
44457;BME280;30159;49.316;8.558;2022-12-04T06:18:50;100182.63;;;3.67;100.00
44457;BME280;30159;49.316;8.558;2022-12-04T06:21:18;100196.53;;;3.69;100.00
44457;BME280;30159;49.316;8.558;2022-12-04T06:23:45;100182.41;;;3.69;100.00
44457;BME280;30159;49.316;8.558;2022-12-04T06:26:11;100199.72;;;3.83;100.00
44457;BME280;30159;49.316;8.558;2022-12-04T06:28:38;100194.59;;;3.82;100.00
44457;BME280;30159;49.316;8.558;2022-12-04T06:31:08;100187.31;;;3.77;100.00
44457;BME280;30159;49.316;8.558;2022-12-04T06:33:35;100039.28;;;2.83;100.00
44457;BME280;30159;49.316;8.558;2022-12-04T06:36:03;100200.38;;;3.90;100.00
44457;BME280;30159;49.316;8.558;2022-12-04T06:38:31;100059.03;;;2.99;100.00
44457;BME280;30159;49.316;8.558;2022-12-04T06:40:58;100201.19;;;3.91;100.00
44457;BME280;30159;49.316;8.558;2022-12-04T06:43:24;100202.41;;;4.00;100.00
44457;BME280;30159;49.316;8.558;2022-12-04T06:45:58;100200.47;;;4.12;100.00
44457;BME280;30159;49.316;8.558;2022-12-04T06:48:26;100209.69;;;4.05;100.00
44457;BME280;30159;49.316;8.558;2022-12-04T06:50:57;100209.13;;;4.03;100.00
44457;BME280;30159;49.316;8.558;2022-12-04T06:53:24;100220.28;;;3.99;100.00
44457;BME280;30159;49.316;8.558;2022-12-04T06:55:52;100151.69;;;3.66;100.00
44457;BME280;30159;49.316;8.558;2022-12-04T06:58:19;100205.13;;;3.88;100.00
44457;BME280;30159;49.316;8.558;2022-12-04T07:00:45;100204.25;;;3.83;100.00
44457;BME280;30159;49.316;8.558;2022-12-04T07:03:12;100208.66;;;3.77;100.00
44457;BME280;30159;49.316;8.558;2022-12-04T07:05:40;100210.19;;;3.73;100.00
44457;BME280;30159;49.316;8.558;2022-12-04T07:08:06;100212.13;;;3.77;100.00
44457;BME280;30159;49.316;8.558;2022-12-04T07:10:34;100198.44;;;3.86;100.00
44457;BME280;30159;49.316;8.558;2022-12-04T07:13:00;100200.38;;;3.90;100.00
44457;BME280;30159;49.316;8.558;2022-12-04T07:15:27;100200.38;;;3.90;100.00
44457;BME280;30159;49.316;8.558;2022-12-04T07:17:54;100198.94;;;3.99;100.00
44457;BME280;30159;49.316;8.558;2022-12-04T07:20:20;100202.56;;;3.93;100.00
44457;BME280;30159;49.316;8.558;2022-12-04T07:22:49;100210.59;;;4.10;100.00
44457;BME280;30159;49.316;8.558;2022-12-04T07:25:16;100206.88;;;4.11;100.00
44457;BME280;30159;49.316;8.558;2022-12-04T07:27:42;100215.94;;;4.10;100.00
44457;BME280;30159;49.316;8.558;2022-12-04T07:30:10;100220.78;;;3.96;100.00
44457;BME280;30159;49.316;8.558;2022-12-04T07:32:36;100222.16;;;3.99;100.00
44457;BME280;30159;49.316;8.558;2022-12-04T07:35:04;100222.03;;;3.94;100.00
44457;BME280;30159;49.316;8.558;2022-12-04T07:37:34;100221.66;;;4.02;100.00
44457;BME280;30159;49.316;8.558;2022-12-04T07:40:02;100216.75;;;4.11;100.00
44457;BME280;30159;49.316;8.558;2022-12-04T07:42:29;100214.22;;;4.04;100.00
44457;BME280;30159;49.316;8.558;2022-12-04T07:44:56;100196.34;;;4.05;100.00
44457;BME280;30159;49.316;8.558;2022-12-04T07:47:22;100200.16;;;4.09;100.00
44457;BME280;30159;49.316;8.558;2022-12-04T07:49:49;100197.41;;;4.04;100.00
44457;BME280;30159;49.316;8.558;2022-12-04T07:52:15;100205.66;;;4.19;100.00
44457;BME280;30159;49.316;8.558;2022-12-04T07:54:42;100206.47;;;4.19;100.00
44457;BME280;30159;49.316;8.558;2022-12-04T07:57:10;100202.09;;;4.13;100.00
44457;BME280;30159;49.316;8.558;2022-12-04T07:59:36;100208.59;;;4.17;100.00
44457;BME280;30159;49.316;8.558;2022-12-04T08:02:04;100200.72;;;4.11;100.00
44457;BME280;30159;49.316;8.558;2022-12-04T08:04:30;100207.59;;;4.07;100.00
44457;BME280;30159;49.316;8.558;2022-12-04T08:06:57;100205.09;;;4.17;100.00
44457;BME280;30159;49.316;8.558;2022-12-04T08:09:24;100207.44;;;4.13;100.00
44457;BME280;30159;49.316;8.558;2022-12-04T08:11:50;100197.25;;;4.10;100.00
44457;BME280;30159;49.316;8.558;2022-12-04T08:14:18;100177.09;;;4.03;100.00
44457;BME280;30159;49.316;8.558;2022-12-04T08:16:48;100198.56;;;4.25;100.00
44457;BME280;30159;49.316;8.558;2022-12-04T08:19:15;100198.31;;;4.26;100.00
44457;BME280;30159;49.316;8.558;2022-12-04T08:21:41;100201.78;;;4.43;100.00
44457;BME280;30159;49.316;8.558;2022-12-04T08:24:08;100199.44;;;4.64;100.00
44457;BME280;30159;49.316;8.558;2022-12-04T08:26:34;100187.63;;;4.60;100.00
44457;BME280;30159;49.316;8.558;2022-12-04T08:29:02;100043.38;;;3.82;100.00
44457;BME280;30159;49.316;8.558;2022-12-04T08:31:31;100203.66;;;4.60;100.00
44457;BME280;30159;49.316;8.558;2022-12-04T08:33:59;100206.06;;;4.61;100.00
44457;BME280;30159;49.316;8.558;2022-12-04T08:36:27;100209.47;;;4.74;100.00
44457;BME280;30159;49.316;8.558;2022-12-04T08:38:54;100210.44;;;4.68;100.00
44457;BME280;30159;49.316;8.558;2022-12-04T08:41:23;100208.66;;;4.73;100.00
44457;BME280;30159;49.316;8.558;2022-12-04T08:43:51;100204.50;;;4.65;100.00
44457;BME280;30159;49.316;8.558;2022-12-04T08:46:19;100198.84;;;4.45;100.00
44457;BME280;30159;49.316;8.558;2022-12-04T08:48:47;100197.09;;;4.51;100.00
44457;BME280;30159;49.316;8.558;2022-12-04T08:51:16;100188.59;;;4.54;100.00
44457;BME280;30159;49.316;8.558;2022-12-04T08:53:44;100044.66;;;3.63;100.00
44457;BME280;30159;49.316;8.558;2022-12-04T08:56:11;100189.84;;;4.68;100.00
44457;BME280;30159;49.316;8.558;2022-12-04T08:58:37;100186.47;;;4.56;100.00
44457;BME280;30159;49.316;8.558;2022-12-04T09:01:05;100196.09;;;4.57;100.00
44457;BME280;30159;49.316;8.558;2022-12-04T09:03:31;100200.19;;;4.59;100.00
44457;BME280;30159;49.316;8.558;2022-12-04T09:06:00;100194.09;;;4.47;100.00
44457;BME280;30159;49.316;8.558;2022-12-04T09:08:27;100198.53;;;4.58;100.00
44457;BME280;30159;49.316;8.558;2022-12-04T09:10:53;100207.34;;;4.59;100.00
44457;BME280;30159;49.316;8.558;2022-12-04T09:13:20;100211.56;;;4.72;100.00
44457;BME280;30159;49.316;8.558;2022-12-04T09:15:47;100225.31;;;4.80;100.00
44457;BME280;30159;49.316;8.558;2022-12-04T09:18:13;100211.00;;;4.70;100.00
44457;BME280;30159;49.316;8.558;2022-12-04T09:20:40;100212.84;;;4.86;100.00
44457;BME280;30159;49.316;8.558;2022-12-04T09:23:08;100213.00;;;4.79;100.00
44457;BME280;30159;49.316;8.558;2022-12-04T09:25:35;100223.28;;;4.71;100.00
44457;BME280;30159;49.316;8.558;2022-12-04T09:28:03;100215.78;;;4.68;100.00
44457;BME280;30159;49.316;8.558;2022-12-04T09:30:30;100222.19;;;4.67;100.00
44457;BME280;30159;49.316;8.558;2022-12-04T09:32:56;100225.78;;;4.77;100.00
44457;BME280;30159;49.316;8.558;2022-12-04T09:35:23;100222.97;;;4.67;100.00
44457;BME280;30159;49.316;8.558;2022-12-04T09:37:49;100074.09;;;3.68;100.00
44457;BME280;30159;49.316;8.558;2022-12-04T09:40:24;100242.97;;;4.81;100.00
44457;BME280;30159;49.316;8.558;2022-12-04T09:42:55;100224.66;;;4.90;100.00
44457;BME280;30159;49.316;8.558;2022-12-04T09:45:27;100221.31;;;5.00;100.00
44457;BME280;30159;49.316;8.558;2022-12-04T09:47:58;100079.25;;;4.25;100.00
44457;BME280;30159;49.316;8.558;2022-12-04T09:50:31;100217.09;;;5.04;100.00
44457;BME280;30159;49.316;8.558;2022-12-04T09:53:02;100213.16;;;4.90;100.00
44457;BME280;30159;49.316;8.558;2022-12-04T09:55:36;100205.50;;;4.98;100.00
44457;BME280;30159;49.316;8.558;2022-12-04T09:58:10;100206.34;;;4.99;100.00
44457;BME280;30159;49.316;8.558;2022-12-04T10:00:41;100045.03;;;4.05;100.00
44457;BME280;30159;49.316;8.558;2022-12-04T10:03:13;100188.78;;;5.08;100.00
44457;BME280;30159;49.316;8.558;2022-12-04T10:05:52;100190.19;;;5.11;100.00
44457;BME280;30159;49.316;8.558;2022-12-04T10:08:22;100188.88;;;5.13;100.00
44457;BME280;30159;49.316;8.558;2022-12-04T10:11:02;100183.66;;;5.23;100.00
44457;BME280;30159;49.316;8.558;2022-12-04T10:16:34;100164.13;;;5.01;100.00
44457;BME280;30159;49.316;8.558;2022-12-04T10:19:08;100158.84;;;5.06;100.00
44457;BME280;30159;49.316;8.558;2022-12-04T10:21:47;100153.50;;;5.06;100.00
44457;BME280;30159;49.316;8.558;2022-12-04T10:24:27;100149.44;;;5.03;100.00
44457;BME280;30159;49.316;8.558;2022-12-04T10:27:03;100148.28;;;5.16;100.00
44457;BME280;30159;49.316;8.558;2022-12-04T10:29:35;100131.72;;;5.19;100.00
44457;BME280;30159;49.316;8.558;2022-12-04T10:32:15;100143.31;;;5.25;100.00
44457;BME280;30159;49.316;8.558;2022-12-04T10:34:43;100132.34;;;5.26;100.00
44457;BME280;30159;49.316;8.558;2022-12-04T10:37:12;100135.34;;;5.30;100.00
44457;BME280;30159;49.316;8.558;2022-12-04T10:39:43;100136.59;;;5.22;100.00
44457;BME280;30159;49.316;8.558;2022-12-04T10:42:19;100149.22;;;5.27;100.00
44457;BME280;30159;49.316;8.558;2022-12-04T10:44:48;100131.47;;;5.21;100.00
44457;BME280;30159;49.316;8.558;2022-12-04T10:47:16;99999.44;;;4.46;100.00
44457;BME280;30159;49.316;8.558;2022-12-04T10:49:42;100136.69;;;5.33;100.00
44457;BME280;30159;49.316;8.558;2022-12-04T10:52:10;100128.19;;;5.14;100.00
44457;BME280;30159;49.316;8.558;2022-12-04T10:54:39;99979.22;;;4.33;100.00
44457;BME280;30159;49.316;8.558;2022-12-04T10:57:12;100116.41;;;5.37;100.00
44457;BME280;30159;49.316;8.558;2022-12-04T10:59:48;100137.25;;;5.35;100.00
44457;BME280;30159;49.316;8.558;2022-12-04T11:02:19;100124.13;;;5.33;100.00
44457;BME280;30159;49.316;8.558;2022-12-04T11:04:51;100118.44;;;5.24;100.00
44457;BME280;30159;49.316;8.558;2022-12-04T11:07:21;100129.63;;;5.21;100.00
44457;BME280;30159;49.316;8.558;2022-12-04T11:09:54;100123.09;;;5.34;100.00
44457;BME280;30159;49.316;8.558;2022-12-04T11:12:23;100122.47;;;5.54;100.00
44457;BME280;30159;49.316;8.558;2022-12-04T11:14:59;100119.44;;;5.73;100.00
44457;BME280;30159;49.316;8.558;2022-12-04T11:17:26;100131.75;;;5.74;100.00
44457;BME280;30159;49.316;8.558;2022-12-04T11:19:58;100125.41;;;5.53;100.00
44457;BME280;30159;49.316;8.558;2022-12-04T11:22:25;100129.72;;;5.59;100.00
44457;BME280;30159;49.316;8.558;2022-12-04T11:24:54;100128.94;;;5.58;100.00
44457;BME280;30159;49.316;8.558;2022-12-04T11:27:24;100129.69;;;5.54;100.00
44457;BME280;30159;49.316;8.558;2022-12-04T11:29:54;100138.63;;;5.64;100.00
44457;BME280;30159;49.316;8.558;2022-12-04T11:32:23;100146.34;;;5.61;100.00
44457;BME280;30159;49.316;8.558;2022-12-04T11:34:52;100142.31;;;5.58;100.00
44457;BME280;30159;49.316;8.558;2022-12-04T11:37:24;100132.59;;;5.52;100.00
44457;BME280;30159;49.316;8.558;2022-12-04T11:39:52;100155.69;;;5.58;100.00
44457;BME280;30159;49.316;8.558;2022-12-04T11:42:24;100143.88;;;5.54;100.00
44457;BME280;30159;49.316;8.558;2022-12-04T11:44:53;100147.84;;;5.52;100.00
44457;BME280;30159;49.316;8.558;2022-12-04T11:47:21;100147.75;;;5.41;100.00
44457;BME280;30159;49.316;8.558;2022-12-04T11:49:58;100143.38;;;5.57;100.00
44457;BME280;30159;49.316;8.558;2022-12-04T11:52:36;100148.09;;;5.50;100.00
44457;BME280;30159;49.316;8.558;2022-12-04T11:55:10;100149.56;;;5.36;100.00
44457;BME280;30159;49.316;8.558;2022-12-04T11:57:47;100138.47;;;5.49;100.00
44457;BME280;30159;49.316;8.558;2022-12-04T12:00:16;100134.59;;;5.35;100.00
44457;BME280;30159;49.316;8.558;2022-12-04T12:03:00;100136.03;;;5.47;100.00
44457;BME280;30159;49.316;8.558;2022-12-04T12:05:54;100144.53;;;5.66;100.00
44457;BME280;30159;49.316;8.558;2022-12-04T12:08:38;100134.28;;;5.58;100.00
44457;BME280;30159;49.316;8.558;2022-12-04T12:11:24;100140.25;;;5.65;100.00
44457;BME280;30159;49.316;8.558;2022-12-04T12:13:58;100015.56;;;4.78;100.00
44457;BME280;30159;49.316;8.558;2022-12-04T12:16:35;100130.41;;;5.44;100.00
44457;BME280;30159;49.316;8.558;2022-12-04T12:19:17;100126.78;;;5.06;100.00
44457;BME280;30159;49.316;8.558;2022-12-04T12:21:52;100140.81;;;4.96;100.00
44457;BME280;30159;49.316;8.558;2022-12-04T12:24:24;100017.31;;;4.06;100.00
44457;BME280;30159;49.316;8.558;2022-12-04T12:26:59;100149.03;;;4.90;100.00
44457;BME280;30159;49.316;8.558;2022-12-04T12:29:40;100136.19;;;4.92;100.00
44457;BME280;30159;49.316;8.558;2022-12-04T12:32:22;100128.31;;;5.02;100.00
44457;BME280;30159;49.316;8.558;2022-12-04T12:34:52;100129.50;;;5.11;100.00
44457;BME280;30159;49.316;8.558;2022-12-04T12:37:22;100114.78;;;5.09;100.00
44457;BME280;30159;49.316;8.558;2022-12-04T12:39:56;100132.28;;;5.21;100.00
44457;BME280;30159;49.316;8.558;2022-12-04T12:42:29;100116.69;;;5.13;100.00
44457;BME280;30159;49.316;8.558;2022-12-04T12:45:02;100119.94;;;4.93;100.00
44457;BME280;30159;49.316;8.558;2022-12-04T12:47:35;100116.81;;;4.79;100.00
44457;BME280;30159;49.316;8.558;2022-12-04T12:50:09;100124.97;;;4.90;100.00
44457;BME280;30159;49.316;8.558;2022-12-04T12:52:42;100113.84;;;4.98;100.00
44457;BME280;30159;49.316;8.558;2022-12-04T12:55:15;100116.97;;;4.90;100.00
44457;BME280;30159;49.316;8.558;2022-12-04T12:57:45;100103.28;;;4.86;100.00
44457;BME280;30159;49.316;8.558;2022-12-04T13:00:16;99983.50;;;4.12;100.00
44457;BME280;30159;49.316;8.558;2022-12-04T13:02:47;100086.88;;;4.99;100.00
44457;BME280;30159;49.316;8.558;2022-12-04T13:05:18;100082.53;;;4.71;100.00
44457;BME280;30159;49.316;8.558;2022-12-04T13:07:50;100086.41;;;4.63;100.00